sensor_id;sensor_type;location;lat;lon;timestamp;P1;durP1;ratioP1;P2;durP2;ratioP2
69207;SDS011;70114;47.690;8.898;2024-02-15T00:00:16;10.10;;;2.30;;
69207;SDS011;70114;47.690;8.898;2024-02-15T00:02:42;8.37;;;1.70;;
69207;SDS011;70114;47.690;8.898;2024-02-15T00:05:09;7.78;;;1.70;;
69207;SDS011;70114;47.690;8.898;2024-02-15T00:07:39;8.30;;;1.52;;
69207;SDS011;70114;47.690;8.898;2024-02-15T00:10:05;5.80;;;1.20;;
69207;SDS011;70114;47.690;8.898;2024-02-15T00:12:31;6.95;;;1.40;;
69207;SDS011;70114;47.690;8.898;2024-02-15T00:14:57;5.40;;;1.10;;
69207;SDS011;70114;47.690;8.898;2024-02-15T00:17:23;6.63;;;1.17;;
69207;SDS011;70114;47.690;8.898;2024-02-15T00:19:50;6.35;;;1.10;;
69207;SDS011;70114;47.690;8.898;2024-02-15T00:22:17;5.78;;;1.10;;
69207;SDS011;70114;47.690;8.898;2024-02-15T00:24:44;6.30;;;1.30;;
69207;SDS011;70114;47.690;8.898;2024-02-15T00:27:10;5.88;;;1.42;;
69207;SDS011;70114;47.690;8.898;2024-02-15T00:29:36;6.73;;;1.40;;
69207;SDS011;70114;47.690;8.898;2024-02-15T00:32:01;6.57;;;1.13;;
69207;SDS011;70114;47.690;8.898;2024-02-15T00:34:31;6.88;;;1.00;;
69207;SDS011;70114;47.690;8.898;2024-02-15T00:36:56;5.10;;;1.10;;
69207;SDS011;70114;47.690;8.898;2024-02-15T00:39:21;5.00;;;1.00;;
69207;SDS011;70114;47.690;8.898;2024-02-15T00:41:47;6.70;;;1.00;;
69207;SDS011;70114;47.690;8.898;2024-02-15T00:44:13;5.38;;;1.08;;
69207;SDS011;70114;47.690;8.898;2024-02-15T00:46:39;5.37;;;1.00;;
69207;SDS011;70114;47.690;8.898;2024-02-15T00:49:06;5.32;;;0.90;;
69207;SDS011;70114;47.690;8.898;2024-02-15T00:51:38;4.40;;;0.70;;
69207;SDS011;70114;47.690;8.898;2024-02-15T00:54:03;6.25;;;1.13;;
69207;SDS011;70114;47.690;8.898;2024-02-15T00:56:29;4.80;;;0.90;;
69207;SDS011;70114;47.690;8.898;2024-02-15T00:58:56;5.28;;;0.90;;
69207;SDS011;70114;47.690;8.898;2024-02-15T01:01:22;4.90;;;0.80;;
69207;SDS011;70114;47.690;8.898;2024-02-15T01:03:47;5.17;;;0.87;;
69207;SDS011;70114;47.690;8.898;2024-02-15T01:06:13;5.00;;;0.85;;
69207;SDS011;70114;47.690;8.898;2024-02-15T01:08:38;4.30;;;0.77;;
69207;SDS011;70114;47.690;8.898;2024-02-15T01:11:04;4.20;;;0.70;;
69207;SDS011;70114;47.690;8.898;2024-02-15T01:13:31;5.47;;;0.90;;
69207;SDS011;70114;47.690;8.898;2024-02-15T01:15:56;5.10;;;0.70;;
69207;SDS011;70114;47.690;8.898;2024-02-15T01:18:22;4.85;;;0.88;;
69207;SDS011;70114;47.690;8.898;2024-02-15T01:20:47;4.63;;;0.90;;
69207;SDS011;70114;47.690;8.898;2024-02-15T01:23:13;5.03;;;0.90;;
69207;SDS011;70114;47.690;8.898;2024-02-15T01:25:39;4.78;;;0.90;;
69207;SDS011;70114;47.690;8.898;2024-02-15T01:28:05;5.90;;;0.80;;
69207;SDS011;70114;47.690;8.898;2024-02-15T01:30:30;5.68;;;1.00;;
69207;SDS011;70114;47.690;8.898;2024-02-15T01:32:57;5.13;;;0.88;;
69207;SDS011;70114;47.690;8.898;2024-02-15T01:35:23;4.95;;;1.00;;
69207;SDS011;70114;47.690;8.898;2024-02-15T01:37:48;4.70;;;0.80;;
69207;SDS011;70114;47.690;8.898;2024-02-15T01:40:13;4.77;;;0.90;;
69207;SDS011;70114;47.690;8.898;2024-02-15T01:42:40;5.45;;;0.90;;
69207;SDS011;70114;47.690;8.898;2024-02-15T01:45:06;5.30;;;0.80;;
69207;SDS011;70114;47.690;8.898;2024-02-15T01:47:31;4.30;;;0.73;;
69207;SDS011;70114;47.690;8.898;2024-02-15T01:49:57;4.80;;;0.85;;
69207;SDS011;70114;47.690;8.898;2024-02-15T01:52:22;4.17;;;0.80;;
69207;SDS011;70114;47.690;8.898;2024-02-15T01:54:48;4.50;;;0.80;;
69207;SDS011;70114;47.690;8.898;2024-02-15T01:57:16;4.95;;;0.73;;
69207;SDS011;70114;47.690;8.898;2024-02-15T01:59:41;5.22;;;0.80;;
69207;SDS011;70114;47.690;8.898;2024-02-15T02:02:08;4.50;;;0.90;;
69207;SDS011;70114;47.690;8.898;2024-02-15T02:04:36;5.82;;;1.10;;
69207;SDS011;70114;47.690;8.898;2024-02-15T02:07:02;5.43;;;0.80;;
69207;SDS011;70114;47.690;8.898;2024-02-15T02:09:28;5.85;;;0.80;;
69207;SDS011;70114;47.690;8.898;2024-02-15T02:11:54;4.33;;;0.80;;
69207;SDS011;70114;47.690;8.898;2024-02-15T02:14:19;4.87;;;0.90;;
69207;SDS011;70114;47.690;8.898;2024-02-15T02:16:45;4.70;;;0.75;;
69207;SDS011;70114;47.690;8.898;2024-02-15T02:19:11;4.78;;;0.90;;
69207;SDS011;70114;47.690;8.898;2024-02-15T02:21:37;4.63;;;0.87;;
69207;SDS011;70114;47.690;8.898;2024-02-15T02:24:05;4.88;;;0.90;;
69207;SDS011;70114;47.690;8.898;2024-02-15T02:26:38;4.50;;;0.80;;
69207;SDS011;70114;47.690;8.898;2024-02-15T02:29:04;4.57;;;0.70;;
69207;SDS011;70114;47.690;8.898;2024-02-15T02:31:33;4.93;;;0.80;;
69207;SDS011;70114;47.690;8.898;2024-02-15T02:33:59;5.35;;;0.80;;
69207;SDS011;70114;47.690;8.898;2024-02-15T02:36:25;4.78;;;0.70;;
69207;SDS011;70114;47.690;8.898;2024-02-15T02:38:51;4.55;;;0.60;;
69207;SDS011;70114;47.690;8.898;2024-02-15T02:41:17;7.40;;;0.90;;
69207;SDS011;70114;47.690;8.898;2024-02-15T02:43:44;5.05;;;0.82;;
69207;SDS011;70114;47.690;8.898;2024-02-15T02:46:10;5.93;;;0.80;;
69207;SDS011;70114;47.690;8.898;2024-02-15T02:48:36;5.10;;;0.75;;
69207;SDS011;70114;47.690;8.898;2024-02-15T02:51:01;4.82;;;0.73;;
69207;SDS011;70114;47.690;8.898;2024-02-15T02:53:27;10.80;;;2.63;;
69207;SDS011;70114;47.690;8.898;2024-02-15T02:55:53;7.95;;;1.90;;
69207;SDS011;70114;47.690;8.898;2024-02-15T02:58:21;15.00;;;3.93;;
69207;SDS011;70114;47.690;8.898;2024-02-15T03:00:46;21.67;;;4.75;;
69207;SDS011;70114;47.690;8.898;2024-02-15T03:03:12;5.70;;;0.83;;
69207;SDS011;70114;47.690;8.898;2024-02-15T03:05:37;6.63;;;1.40;;
69207;SDS011;70114;47.690;8.898;2024-02-15T03:08:05;4.17;;;0.70;;
69207;SDS011;70114;47.690;8.898;2024-02-15T03:10:30;9.60;;;2.00;;
69207;SDS011;70114;47.690;8.898;2024-02-15T03:12:56;6.67;;;1.37;;
69207;SDS011;70114;47.690;8.898;2024-02-15T03:15:22;5.50;;;0.83;;
69207;SDS011;70114;47.690;8.898;2024-02-15T03:17:47;5.80;;;0.88;;
69207;SDS011;70114;47.690;8.898;2024-02-15T03:20:13;4.22;;;0.73;;
69207;SDS011;70114;47.690;8.898;2024-02-15T03:22:58;7.77;;;1.40;;
69207;SDS011;70114;47.690;8.898;2024-02-15T03:25:25;5.45;;;0.90;;
69207;SDS011;70114;47.690;8.898;2024-02-15T03:27:54;5.47;;;0.75;;
69207;SDS011;70114;47.690;8.898;2024-02-15T03:30:26;5.07;;;0.80;;
69207;SDS011;70114;47.690;8.898;2024-02-15T03:32:56;5.32;;;0.80;;
69207;SDS011;70114;47.690;8.898;2024-02-15T03:35:22;5.10;;;0.80;;
69207;SDS011;70114;47.690;8.898;2024-02-15T03:37:50;4.57;;;0.80;;
69207;SDS011;70114;47.690;8.898;2024-02-15T03:40:16;4.72;;;0.70;;
69207;SDS011;70114;47.690;8.898;2024-02-15T03:42:43;4.75;;;0.90;;
69207;SDS011;70114;47.690;8.898;2024-02-15T03:45:08;5.00;;;1.00;;
69207;SDS011;70114;47.690;8.898;2024-02-15T03:47:37;5.70;;;0.88;;
69207;SDS011;70114;47.690;8.898;2024-02-15T03:50:03;5.25;;;1.02;;
69207;SDS011;70114;47.690;8.898;2024-02-15T03:52:29;5.83;;;1.17;;
69207;SDS011;70114;47.690;8.898;2024-02-15T03:54:55;4.97;;;0.82;;
69207;SDS011;70114;47.690;8.898;2024-02-15T03:57:25;5.13;;;0.90;;
69207;SDS011;70114;47.690;8.898;2024-02-15T03:59:51;5.43;;;1.00;;
69207;SDS011;70114;47.690;8.898;2024-02-15T04:02:19;5.27;;;0.90;;
69207;SDS011;70114;47.690;8.898;2024-02-15T04:04:45;5.05;;;0.80;;
69207;SDS011;70114;47.690;8.898;2024-02-15T04:07:15;5.97;;;1.10;;
69207;SDS011;70114;47.690;8.898;2024-02-15T04:09:41;5.77;;;1.10;;
69207;SDS011;70114;47.690;8.898;2024-02-15T04:12:07;5.60;;;1.10;;
69207;SDS011;70114;47.690;8.898;2024-02-15T04:14:33;5.43;;;1.00;;
69207;SDS011;70114;47.690;8.898;2024-02-15T04:17:03;5.43;;;1.10;;
69207;SDS011;70114;47.690;8.898;2024-02-15T04:19:29;5.65;;;1.10;;
69207;SDS011;70114;47.690;8.898;2024-02-15T04:21:56;5.20;;;1.02;;
69207;SDS011;70114;47.690;8.898;2024-02-15T04:24:21;6.00;;;1.10;;
69207;SDS011;70114;47.690;8.898;2024-02-15T04:26:47;5.27;;;0.90;;
69207;SDS011;70114;47.690;8.898;2024-02-15T04:29:13;5.25;;;0.95;;
69207;SDS011;70114;47.690;8.898;2024-02-15T04:31:42;6.32;;;1.17;;
69207;SDS011;70114;47.690;8.898;2024-02-15T04:34:08;8.83;;;2.83;;
69207;SDS011;70114;47.690;8.898;2024-02-15T04:36:36;6.63;;;1.15;;
69207;SDS011;70114;47.690;8.898;2024-02-15T04:39:02;5.43;;;1.13;;
69207;SDS011;70114;47.690;8.898;2024-02-15T04:41:27;6.40;;;1.23;;
69207;SDS011;70114;47.690;8.898;2024-02-15T04:43:54;4.93;;;1.00;;
69207;SDS011;70114;47.690;8.898;2024-02-15T04:46:19;6.03;;;1.30;;
69207;SDS011;70114;47.690;8.898;2024-02-15T04:48:46;5.60;;;1.10;;
69207;SDS011;70114;47.690;8.898;2024-02-15T04:51:12;5.07;;;0.98;;
69207;SDS011;70114;47.690;8.898;2024-02-15T04:53:37;5.03;;;0.90;;
69207;SDS011;70114;47.690;8.898;2024-02-15T04:56:05;5.50;;;1.00;;
69207;SDS011;70114;47.690;8.898;2024-02-15T04:58:41;5.40;;;1.00;;
69207;SDS011;70114;47.690;8.898;2024-02-15T05:01:13;5.27;;;1.03;;
69207;SDS011;70114;47.690;8.898;2024-02-15T05:03:39;5.00;;;0.90;;
69207;SDS011;70114;47.690;8.898;2024-02-15T05:06:05;5.40;;;1.00;;
69207;SDS011;70114;47.690;8.898;2024-02-15T05:08:33;5.90;;;1.20;;
69207;SDS011;70114;47.690;8.898;2024-02-15T05:11:00;6.07;;;1.05;;
69207;SDS011;70114;47.690;8.898;2024-02-15T05:13:25;5.90;;;1.00;;
69207;SDS011;70114;47.690;8.898;2024-02-15T05:15:50;5.45;;;1.05;;
69207;SDS011;70114;47.690;8.898;2024-02-15T05:18:16;7.57;;;1.10;;
69207;SDS011;70114;47.690;8.898;2024-02-15T05:20:42;6.80;;;1.10;;
69207;SDS011;70114;47.690;8.898;2024-02-15T05:23:07;6.68;;;1.20;;
69207;SDS011;70114;47.690;8.898;2024-02-15T05:25:33;5.70;;;1.40;;
69207;SDS011;70114;47.690;8.898;2024-02-15T05:28:00;5.53;;;0.88;;
69207;SDS011;70114;47.690;8.898;2024-02-15T05:30:26;4.90;;;1.00;;
69207;SDS011;70114;47.690;8.898;2024-02-15T05:32:51;5.47;;;0.93;;
69207;SDS011;70114;47.690;8.898;2024-02-15T05:35:18;6.13;;;1.40;;
69207;SDS011;70114;47.690;8.898;2024-02-15T05:37:43;6.60;;;1.30;;
69207;SDS011;70114;47.690;8.898;2024-02-15T05:40:09;5.80;;;0.87;;
69207;SDS011;70114;47.690;8.898;2024-02-15T05:42:40;5.78;;;1.00;;
69207;SDS011;70114;47.690;8.898;2024-02-15T05:47:49;6.28;;;1.20;;
69207;SDS011;70114;47.690;8.898;2024-02-15T05:50:15;5.60;;;1.00;;
69207;SDS011;70114;47.690;8.898;2024-02-15T05:52:40;5.83;;;0.90;;
69207;SDS011;70114;47.690;8.898;2024-02-15T05:55:06;5.27;;;1.00;;
69207;SDS011;70114;47.690;8.898;2024-02-15T05:57:32;7.85;;;1.42;;
69207;SDS011;70114;47.690;8.898;2024-02-15T05:59:57;5.47;;;1.30;;
69207;SDS011;70114;47.690;8.898;2024-02-15T06:02:27;5.65;;;1.25;;
69207;SDS011;70114;47.690;8.898;2024-02-15T06:04:52;6.20;;;1.03;;
69207;SDS011;70114;47.690;8.898;2024-02-15T06:07:19;4.85;;;0.93;;
69207;SDS011;70114;47.690;8.898;2024-02-15T06:09:45;6.63;;;1.20;;
69207;SDS011;70114;47.690;8.898;2024-02-15T06:12:11;5.33;;;1.30;;
69207;SDS011;70114;47.690;8.898;2024-02-15T06:14:36;6.60;;;1.17;;
69207;SDS011;70114;47.690;8.898;2024-02-15T06:17:02;6.27;;;1.20;;
69207;SDS011;70114;47.690;8.898;2024-02-15T06:19:27;4.87;;;1.00;;
69207;SDS011;70114;47.690;8.898;2024-02-15T06:21:53;7.47;;;1.55;;
69207;SDS011;70114;47.690;8.898;2024-02-15T06:24:18;5.03;;;0.93;;
69207;SDS011;70114;47.690;8.898;2024-02-15T06:26:44;7.03;;;2.30;;
69207;SDS011;70114;47.690;8.898;2024-02-15T06:29:10;6.53;;;1.20;;
69207;SDS011;70114;47.690;8.898;2024-02-15T06:31:54;5.93;;;1.10;;
69207;SDS011;70114;47.690;8.898;2024-02-15T06:34:38;5.68;;;1.10;;
69207;SDS011;70114;47.690;8.898;2024-02-15T06:37:34;6.38;;;1.05;;
69207;SDS011;70114;47.690;8.898;2024-02-15T06:40:19;6.13;;;1.10;;
69207;SDS011;70114;47.690;8.898;2024-02-15T06:42:44;5.40;;;1.20;;
69207;SDS011;70114;47.690;8.898;2024-02-15T06:45:10;6.03;;;1.20;;
69207;SDS011;70114;47.690;8.898;2024-02-15T06:47:40;7.00;;;1.10;;
69207;SDS011;70114;47.690;8.898;2024-02-15T06:50:07;8.30;;;1.63;;
69207;SDS011;70114;47.690;8.898;2024-02-15T06:52:34;7.25;;;1.40;;
69207;SDS011;70114;47.690;8.898;2024-02-15T06:54:59;5.53;;;1.20;;
69207;SDS011;70114;47.690;8.898;2024-02-15T06:57:25;7.17;;;1.43;;
69207;SDS011;70114;47.690;8.898;2024-02-15T06:59:51;6.18;;;1.50;;
69207;SDS011;70114;47.690;8.898;2024-02-15T07:02:16;6.40;;;1.20;;
69207;SDS011;70114;47.690;8.898;2024-02-15T07:04:43;6.55;;;1.45;;
69207;SDS011;70114;47.690;8.898;2024-02-15T07:07:10;7.97;;;2.20;;
69207;SDS011;70114;47.690;8.898;2024-02-15T07:09:37;8.65;;;3.03;;
69207;SDS011;70114;47.690;8.898;2024-02-15T07:12:03;9.57;;;3.28;;
69207;SDS011;70114;47.690;8.898;2024-02-15T07:14:29;10.30;;;3.10;;
69207;SDS011;70114;47.690;8.898;2024-02-15T07:16:55;9.17;;;2.47;;
69207;SDS011;70114;47.690;8.898;2024-02-15T07:19:23;8.68;;;2.08;;
69207;SDS011;70114;47.690;8.898;2024-02-15T07:21:49;7.60;;;1.67;;
69207;SDS011;70114;47.690;8.898;2024-02-15T07:24:16;7.90;;;2.40;;
69207;SDS011;70114;47.690;8.898;2024-02-15T07:26:41;11.43;;;4.20;;
69207;SDS011;70114;47.690;8.898;2024-02-15T07:29:06;15.80;;;6.07;;
69207;SDS011;70114;47.690;8.898;2024-02-15T07:31:33;16.02;;;5.90;;
69207;SDS011;70114;47.690;8.898;2024-02-15T07:33:59;11.05;;;3.88;;
69207;SDS011;70114;47.690;8.898;2024-02-15T07:36:25;12.50;;;4.30;;
69207;SDS011;70114;47.690;8.898;2024-02-15T07:38:51;14.10;;;5.47;;
69207;SDS011;70114;47.690;8.898;2024-02-15T07:41:18;12.65;;;3.65;;
69207;SDS011;70114;47.690;8.898;2024-02-15T07:43:51;10.27;;;3.10;;
69207;SDS011;70114;47.690;8.898;2024-02-15T07:46:20;10.00;;;2.83;;
69207;SDS011;70114;47.690;8.898;2024-02-15T07:48:46;11.43;;;3.90;;
69207;SDS011;70114;47.690;8.898;2024-02-15T07:51:13;11.38;;;3.35;;
69207;SDS011;70114;47.690;8.898;2024-02-15T07:53:43;10.52;;;3.17;;
69207;SDS011;70114;47.690;8.898;2024-02-15T07:56:09;11.47;;;3.53;;
69207;SDS011;70114;47.690;8.898;2024-02-15T07:58:37;10.10;;;3.00;;
69207;SDS011;70114;47.690;8.898;2024-02-15T08:01:04;11.50;;;3.80;;
69207;SDS011;70114;47.690;8.898;2024-02-15T08:03:30;9.65;;;3.17;;
69207;SDS011;70114;47.690;8.898;2024-02-15T08:05:56;10.27;;;3.40;;
69207;SDS011;70114;47.690;8.898;2024-02-15T08:08:21;11.17;;;3.93;;
69207;SDS011;70114;47.690;8.898;2024-02-15T08:10:46;10.53;;;3.80;;
69207;SDS011;70114;47.690;8.898;2024-02-15T08:13:13;9.93;;;3.75;;
69207;SDS011;70114;47.690;8.898;2024-02-15T08:15:40;10.70;;;4.22;;
69207;SDS011;70114;47.690;8.898;2024-02-15T08:18:05;18.87;;;8.10;;
69207;SDS011;70114;47.690;8.898;2024-02-15T08:20:34;18.98;;;7.82;;
69207;SDS011;70114;47.690;8.898;2024-02-15T08:22:59;13.33;;;5.13;;
69207;SDS011;70114;47.690;8.898;2024-02-15T08:25:25;11.77;;;4.47;;
69207;SDS011;70114;47.690;8.898;2024-02-15T08:27:50;18.27;;;8.30;;
69207;SDS011;70114;47.690;8.898;2024-02-15T08:30:16;12.80;;;5.03;;
69207;SDS011;70114;47.690;8.898;2024-02-15T08:32:41;11.30;;;3.80;;
69207;SDS011;70114;47.690;8.898;2024-02-15T08:35:11;8.45;;;3.00;;
69207;SDS011;70114;47.690;8.898;2024-02-15T08:37:37;9.48;;;2.50;;
69207;SDS011;70114;47.690;8.898;2024-02-15T08:40:07;7.53;;;2.72;;
69207;SDS011;70114;47.690;8.898;2024-02-15T08:42:41;7.93;;;2.60;;
69207;SDS011;70114;47.690;8.898;2024-02-15T08:45:07;9.63;;;2.50;;
69207;SDS011;70114;47.690;8.898;2024-02-15T08:47:35;9.43;;;2.17;;
69207;SDS011;70114;47.690;8.898;2024-02-15T08:50:02;7.95;;;2.08;;
69207;SDS011;70114;47.690;8.898;2024-02-15T08:52:28;6.70;;;1.92;;
69207;SDS011;70114;47.690;8.898;2024-02-15T08:54:54;7.20;;;2.07;;
69207;SDS011;70114;47.690;8.898;2024-02-15T08:57:22;7.22;;;2.15;;
69207;SDS011;70114;47.690;8.898;2024-02-15T08:59:47;7.05;;;1.90;;
69207;SDS011;70114;47.690;8.898;2024-02-15T09:02:13;6.67;;;1.50;;
69207;SDS011;70114;47.690;8.898;2024-02-15T09:04:39;6.00;;;1.45;;
69207;SDS011;70114;47.690;8.898;2024-02-15T09:07:06;6.32;;;1.70;;
69207;SDS011;70114;47.690;8.898;2024-02-15T09:09:32;5.80;;;1.33;;
69207;SDS011;70114;47.690;8.898;2024-02-15T09:12:00;4.93;;;1.00;;
69207;SDS011;70114;47.690;8.898;2024-02-15T09:14:26;24.98;;;10.25;;
69207;SDS011;70114;47.690;8.898;2024-02-15T09:16:51;6.70;;;1.60;;
69207;SDS011;70114;47.690;8.898;2024-02-15T09:19:17;4.93;;;0.90;;
69207;SDS011;70114;47.690;8.898;2024-02-15T09:21:44;5.00;;;0.98;;
69207;SDS011;70114;47.690;8.898;2024-02-15T09:24:09;5.07;;;0.80;;
69207;SDS011;70114;47.690;8.898;2024-02-15T09:26:34;5.20;;;0.90;;
69207;SDS011;70114;47.690;8.898;2024-02-15T09:29:01;6.30;;;1.58;;
69207;SDS011;70114;47.690;8.898;2024-02-15T09:31:26;5.60;;;1.37;;
69207;SDS011;70114;47.690;8.898;2024-02-15T09:33:51;6.30;;;1.60;;
69207;SDS011;70114;47.690;8.898;2024-02-15T09:36:17;7.20;;;2.57;;
69207;SDS011;70114;47.690;8.898;2024-02-15T09:38:42;7.93;;;2.50;;
69207;SDS011;70114;47.690;8.898;2024-02-15T09:41:08;7.03;;;2.30;;
69207;SDS011;70114;47.690;8.898;2024-02-15T09:43:34;6.50;;;2.00;;
69207;SDS011;70114;47.690;8.898;2024-02-15T09:46:00;6.63;;;2.40;;
69207;SDS011;70114;47.690;8.898;2024-02-15T09:48:29;7.87;;;2.60;;
69207;SDS011;70114;47.690;8.898;2024-02-15T09:50:57;7.80;;;2.33;;
69207;SDS011;70114;47.690;8.898;2024-02-15T09:53:23;8.13;;;3.00;;
69207;SDS011;70114;47.690;8.898;2024-02-15T09:55:55;9.00;;;3.72;;
69207;SDS011;70114;47.690;8.898;2024-02-15T09:58:28;9.18;;;3.60;;
69207;SDS011;70114;47.690;8.898;2024-02-15T10:00:54;8.53;;;3.23;;
69207;SDS011;70114;47.690;8.898;2024-02-15T10:03:20;8.95;;;3.38;;
69207;SDS011;70114;47.690;8.898;2024-02-15T10:05:48;8.77;;;3.57;;
69207;SDS011;70114;47.690;8.898;2024-02-15T10:08:14;8.77;;;3.28;;
69207;SDS011;70114;47.690;8.898;2024-02-15T10:10:40;7.22;;;3.10;;
69207;SDS011;70114;47.690;8.898;2024-02-15T10:13:06;8.47;;;3.20;;
69207;SDS011;70114;47.690;8.898;2024-02-15T10:15:38;9.18;;;3.60;;
69207;SDS011;70114;47.690;8.898;2024-02-15T10:18:06;9.90;;;3.50;;
69207;SDS011;70114;47.690;8.898;2024-02-15T10:20:34;9.25;;;3.05;;
69207;SDS011;70114;47.690;8.898;2024-02-15T10:25:32;9.43;;;3.77;;
69207;SDS011;70114;47.690;8.898;2024-02-15T10:28:07;10.95;;;4.47;;
69207;SDS011;70114;47.690;8.898;2024-02-15T10:30:40;12.30;;;5.00;;
69207;SDS011;70114;47.690;8.898;2024-02-15T10:33:10;11.77;;;5.63;;
69207;SDS011;70114;47.690;8.898;2024-02-15T10:35:45;18.20;;;8.65;;
69207;SDS011;70114;47.690;8.898;2024-02-15T10:38:10;15.43;;;6.97;;
69207;SDS011;70114;47.690;8.898;2024-02-15T10:40:37;13.02;;;6.25;;
69207;SDS011;70114;47.690;8.898;2024-02-15T10:43:03;17.50;;;8.88;;
69207;SDS011;70114;47.690;8.898;2024-02-15T10:45:30;20.88;;;11.02;;
69207;SDS011;70114;47.690;8.898;2024-02-15T10:47:56;24.17;;;13.23;;
69207;SDS011;70114;47.690;8.898;2024-02-15T10:50:22;13.20;;;6.10;;
69207;SDS011;70114;47.690;8.898;2024-02-15T10:52:55;14.57;;;8.13;;
69207;SDS011;70114;47.690;8.898;2024-02-15T10:55:34;18.70;;;9.60;;
69207;SDS011;70114;47.690;8.898;2024-02-15T10:58:06;17.57;;;9.00;;
69207;SDS011;70114;47.690;8.898;2024-02-15T11:00:32;17.77;;;9.43;;
69207;SDS011;70114;47.690;8.898;2024-02-15T11:03:06;16.25;;;8.80;;
69207;SDS011;70114;47.690;8.898;2024-02-15T11:05:36;14.00;;;7.35;;
69207;SDS011;70114;47.690;8.898;2024-02-15T11:08:05;13.30;;;6.32;;
69207;SDS011;70114;47.690;8.898;2024-02-15T11:10:33;12.60;;;6.13;;
69207;SDS011;70114;47.690;8.898;2024-02-15T11:13:00;12.88;;;5.35;;
69207;SDS011;70114;47.690;8.898;2024-02-15T11:18:00;9.50;;;3.88;;
69207;SDS011;70114;47.690;8.898;2024-02-15T11:23:01;10.05;;;4.05;;
69207;SDS011;70114;47.690;8.898;2024-02-15T11:25:38;9.25;;;3.05;;
69207;SDS011;70114;47.690;8.898;2024-02-15T11:30:49;7.73;;;3.10;;
69207;SDS011;70114;47.690;8.898;2024-02-15T11:33:33;8.18;;;3.10;;
69207;SDS011;70114;47.690;8.898;2024-02-15T11:38:38;8.70;;;3.13;;
69207;SDS011;70114;47.690;8.898;2024-02-15T11:41:10;7.22;;;2.75;;
69207;SDS011;70114;47.690;8.898;2024-02-15T11:46:13;7.93;;;2.90;;
69207;SDS011;70114;47.690;8.898;2024-02-15T11:48:39;7.13;;;2.40;;
69207;SDS011;70114;47.690;8.898;2024-02-15T11:51:05;7.53;;;2.27;;
69207;SDS011;70114;47.690;8.898;2024-02-15T11:53:32;6.50;;;2.40;;
69207;SDS011;70114;47.690;8.898;2024-02-15T11:56:00;6.70;;;2.20;;
69207;SDS011;70114;47.690;8.898;2024-02-15T11:58:32;7.47;;;2.30;;
69207;SDS011;70114;47.690;8.898;2024-02-15T12:01:10;7.70;;;2.38;;
69207;SDS011;70114;47.690;8.898;2024-02-15T12:03:55;6.25;;;2.17;;
69207;SDS011;70114;47.690;8.898;2024-02-15T12:06:40;6.68;;;2.50;;
69207;SDS011;70114;47.690;8.898;2024-02-15T12:09:24;7.20;;;2.38;;
69207;SDS011;70114;47.690;8.898;2024-02-15T12:12:11;8.00;;;2.50;;
69207;SDS011;70114;47.690;8.898;2024-02-15T12:15:01;6.75;;;2.20;;
69207;SDS011;70114;47.690;8.898;2024-02-15T12:17:46;10.55;;;3.58;;
69207;SDS011;70114;47.690;8.898;2024-02-15T12:20:30;7.60;;;3.20;;
69207;SDS011;70114;47.690;8.898;2024-02-15T12:22:57;8.13;;;3.03;;
69207;SDS011;70114;47.690;8.898;2024-02-15T12:25:23;9.10;;;3.80;;
69207;SDS011;70114;47.690;8.898;2024-02-15T12:27:53;9.20;;;4.00;;
69207;SDS011;70114;47.690;8.898;2024-02-15T12:30:19;9.13;;;3.60;;
69207;SDS011;70114;47.690;8.898;2024-02-15T12:32:46;9.52;;;4.18;;
69207;SDS011;70114;47.690;8.898;2024-02-15T12:35:16;7.90;;;3.07;;
69207;SDS011;70114;47.690;8.898;2024-02-15T12:37:45;8.07;;;3.03;;
69207;SDS011;70114;47.690;8.898;2024-02-15T12:40:30;8.13;;;2.60;;
69207;SDS011;70114;47.690;8.898;2024-02-15T12:42:56;7.78;;;2.60;;
69207;SDS011;70114;47.690;8.898;2024-02-15T12:45:22;7.60;;;2.63;;
69207;SDS011;70114;47.690;8.898;2024-02-15T12:47:55;8.77;;;2.92;;
69207;SDS011;70114;47.690;8.898;2024-02-15T12:50:21;6.70;;;2.30;;
69207;SDS011;70114;47.690;8.898;2024-02-15T12:52:49;6.40;;;2.38;;
69207;SDS011;70114;47.690;8.898;2024-02-15T12:57:41;6.05;;;1.88;;
69207;SDS011;70114;47.690;8.898;2024-02-15T13:00:11;6.90;;;2.20;;
69207;SDS011;70114;47.690;8.898;2024-02-15T13:02:42;7.00;;;2.33;;
69207;SDS011;70114;47.690;8.898;2024-02-15T13:05:08;7.35;;;2.00;;
69207;SDS011;70114;47.690;8.898;2024-02-15T13:07:37;6.80;;;2.50;;
69207;SDS011;70114;47.690;8.898;2024-02-15T13:10:03;13.60;;;7.00;;
69207;SDS011;70114;47.690;8.898;2024-02-15T13:12:32;8.10;;;3.00;;
69207;SDS011;70114;47.690;8.898;2024-02-15T13:14:59;6.22;;;2.47;;
69207;SDS011;70114;47.690;8.898;2024-02-15T13:17:28;6.30;;;2.30;;
69207;SDS011;70114;47.690;8.898;2024-02-15T13:19:54;6.17;;;2.13;;
69207;SDS011;70114;47.690;8.898;2024-02-15T13:22:27;6.63;;;2.25;;
69207;SDS011;70114;47.690;8.898;2024-02-15T13:24:53;6.78;;;2.58;;
69207;SDS011;70114;47.690;8.898;2024-02-15T13:27:20;6.83;;;2.67;;
69207;SDS011;70114;47.690;8.898;2024-02-15T13:29:46;6.32;;;2.40;;
69207;SDS011;70114;47.690;8.898;2024-02-15T13:32:12;7.37;;;2.30;;
69207;SDS011;70114;47.690;8.898;2024-02-15T13:34:39;7.28;;;2.80;;
69207;SDS011;70114;47.690;8.898;2024-02-15T13:37:05;6.33;;;2.10;;
69207;SDS011;70114;47.690;8.898;2024-02-15T13:39:30;6.78;;;2.58;;
69207;SDS011;70114;47.690;8.898;2024-02-15T13:41:59;6.47;;;2.40;;
69207;SDS011;70114;47.690;8.898;2024-02-15T13:44:25;7.20;;;2.33;;
69207;SDS011;70114;47.690;8.898;2024-02-15T13:46:50;6.80;;;2.60;;
69207;SDS011;70114;47.690;8.898;2024-02-15T13:49:16;6.80;;;2.50;;
69207;SDS011;70114;47.690;8.898;2024-02-15T13:51:42;6.90;;;2.45;;
69207;SDS011;70114;47.690;8.898;2024-02-15T13:54:10;7.47;;;2.60;;
69207;SDS011;70114;47.690;8.898;2024-02-15T13:56:38;7.55;;;2.10;;
69207;SDS011;70114;47.690;8.898;2024-02-15T13:59:04;6.93;;;2.15;;
69207;SDS011;70114;47.690;8.898;2024-02-15T14:01:30;7.33;;;2.30;;
69207;SDS011;70114;47.690;8.898;2024-02-15T14:03:56;6.37;;;1.90;;
69207;SDS011;70114;47.690;8.898;2024-02-15T14:06:21;6.63;;;2.10;;
69207;SDS011;70114;47.690;8.898;2024-02-15T14:08:46;7.60;;;2.80;;
69207;SDS011;70114;47.690;8.898;2024-02-15T14:11:12;7.83;;;2.70;;
69207;SDS011;70114;47.690;8.898;2024-02-15T14:13:38;7.33;;;2.73;;
69207;SDS011;70114;47.690;8.898;2024-02-15T14:16:04;7.10;;;2.40;;
69207;SDS011;70114;47.690;8.898;2024-02-15T14:18:30;9.60;;;5.13;;
69207;SDS011;70114;47.690;8.898;2024-02-15T14:21:02;8.43;;;3.47;;
69207;SDS011;70114;47.690;8.898;2024-02-15T14:23:29;7.35;;;2.72;;
69207;SDS011;70114;47.690;8.898;2024-02-15T14:25:55;9.70;;;2.60;;
69207;SDS011;70114;47.690;8.898;2024-02-15T14:28:25;8.32;;;2.50;;
69207;SDS011;70114;47.690;8.898;2024-02-15T14:30:50;8.63;;;2.80;;
69207;SDS011;70114;47.690;8.898;2024-02-15T14:33:34;7.15;;;2.50;;
69207;SDS011;70114;47.690;8.898;2024-02-15T14:35:59;8.13;;;2.90;;
69207;SDS011;70114;47.690;8.898;2024-02-15T14:38:25;9.32;;;2.70;;
69207;SDS011;70114;47.690;8.898;2024-02-15T14:40:51;9.43;;;2.73;;
69207;SDS011;70114;47.690;8.898;2024-02-15T14:43:25;9.40;;;2.45;;
69207;SDS011;70114;47.690;8.898;2024-02-15T14:45:51;7.35;;;2.22;;
69207;SDS011;70114;47.690;8.898;2024-02-15T14:48:18;6.60;;;2.27;;
69207;SDS011;70114;47.690;8.898;2024-02-15T14:50:45;8.73;;;2.60;;
69207;SDS011;70114;47.690;8.898;2024-02-15T14:53:14;6.88;;;2.50;;
69207;SDS011;70114;47.690;8.898;2024-02-15T14:55:40;11.18;;;3.58;;
69207;SDS011;70114;47.690;8.898;2024-02-15T14:58:08;9.13;;;2.97;;
69207;SDS011;70114;47.690;8.898;2024-02-15T15:03:10;6.80;;;2.40;;
69207;SDS011;70114;47.690;8.898;2024-02-15T15:05:50;8.02;;;2.30;;
69207;SDS011;70114;47.690;8.898;2024-02-15T15:08:34;6.68;;;2.20;;
69207;SDS011;70114;47.690;8.898;2024-02-15T15:11:18;6.20;;;1.90;;